sensor_id;sensor_type;location;lat;lon;timestamp;pressure;altitude;pressure_sealevel;temperature;humidity
21838;BME280;11081;45.946;6.140;2023-05-28T00:00:42;95093.38;;;18.78;66.85
21838;BME280;11081;45.946;6.140;2023-05-28T00:03:12;95095.53;;;18.76;67.12
21838;BME280;11081;45.946;6.140;2023-05-28T00:05:44;95097.13;;;18.67;66.54
21838;BME280;11081;45.946;6.140;2023-05-28T00:08:13;95089.75;;;18.59;66.49
21838;BME280;11081;45.946;6.140;2023-05-28T00:10:42;95086.59;;;18.57;66.82
21838;BME280;11081;45.946;6.140;2023-05-28T00:13:10;95076.03;;;18.57;66.91
21838;BME280;11081;45.946;6.140;2023-05-28T00:15:39;95082.88;;;18.58;66.50
21838;BME280;11081;45.946;6.140;2023-05-28T00:18:07;95074.44;;;18.56;66.51
21838;BME280;11081;45.946;6.140;2023-05-28T00:20:38;95074.97;;;18.53;66.74
21838;BME280;11081;45.946;6.140;2023-05-28T00:23:06;95067.06;;;18.48;66.70
21838;BME280;11081;45.946;6.140;2023-05-28T00:25:34;95067.09;;;18.43;67.10
21838;BME280;11081;45.946;6.140;2023-05-28T00:28:02;95067.59;;;18.45;66.88
21838;BME280;11081;45.946;6.140;2023-05-28T00:30:30;95065.47;;;18.47;66.97
21838;BME280;11081;45.946;6.140;2023-05-28T00:33:00;95064.41;;;18.48;66.77
21838;BME280;11081;45.946;6.140;2023-05-28T00:35:28;95065.25;;;18.43;67.22
21838;BME280;11081;45.946;6.140;2023-05-28T00:37:57;95061.88;;;18.27;67.53
21838;BME280;11081;45.946;6.140;2023-05-28T00:40:25;95061.06;;;18.27;67.36
21838;BME280;11081;45.946;6.140;2023-05-28T00:42:53;95063.16;;;18.35;67.21
21838;BME280;11081;45.946;6.140;2023-05-28T00:45:21;95054.44;;;18.35;66.81
21838;BME280;11081;45.946;6.140;2023-05-28T00:47:49;95060.53;;;18.30;66.72
21838;BME280;11081;45.946;6.140;2023-05-28T00:50:19;95046.25;;;18.31;66.28
21838;BME280;11081;45.946;6.140;2023-05-28T00:52:49;95051.03;;;18.34;66.00
21838;BME280;11081;45.946;6.140;2023-05-28T00:55:19;95060.81;;;18.34;66.02
21838;BME280;11081;45.946;6.140;2023-05-28T00:57:47;95060.25;;;18.37;65.71
21838;BME280;11081;45.946;6.140;2023-05-28T01:00:21;95060.53;;;18.35;65.68
21838;BME280;11081;45.946;6.140;2023-05-28T01:02:50;95072.44;;;18.33;65.58
21838;BME280;11081;45.946;6.140;2023-05-28T01:05:20;95074.53;;;18.31;65.71
21838;BME280;11081;45.946;6.140;2023-05-28T01:07:49;95071.41;;;18.23;65.58
21838;BME280;11081;45.946;6.140;2023-05-28T01:10:18;95073.53;;;18.11;66.17
21838;BME280;11081;45.946;6.140;2023-05-28T01:12:48;95082.03;;;18.03;67.09
21838;BME280;11081;45.946;6.140;2023-05-28T01:15:17;95088.34;;;18.07;66.72
21838;BME280;11081;45.946;6.140;2023-05-28T01:17:45;95091.25;;;18.06;66.98
21838;BME280;11081;45.946;6.140;2023-05-28T01:20:15;95086.78;;;18.06;66.91
21838;BME280;11081;45.946;6.140;2023-05-28T01:22:52;95085.22;;;18.00;67.06
21838;BME280;11081;45.946;6.140;2023-05-28T01:25:24;95082.84;;;17.98;67.01
21838;BME280;11081;45.946;6.140;2023-05-28T01:27:53;95081.00;;;17.99;67.09
21838;BME280;11081;45.946;6.140;2023-05-28T01:30:21;95083.91;;;17.97;66.86
21838;BME280;11081;45.946;6.140;2023-05-28T01:32:49;95086.28;;;17.94;66.88
21838;BME280;11081;45.946;6.140;2023-05-28T01:35:17;95092.09;;;17.96;66.86
21838;BME280;11081;45.946;6.140;2023-05-28T01:37:48;95082.59;;;17.95;66.80
21838;BME280;11081;45.946;6.140;2023-05-28T01:40:18;95076.78;;;17.93;66.97
21838;BME280;11081;45.946;6.140;2023-05-28T01:42:49;95072.03;;;17.90;66.99
21838;BME280;11081;45.946;6.140;2023-05-28T01:45:18;95070.97;;;17.86;67.27
21838;BME280;11081;45.946;6.140;2023-05-28T01:47:47;95074.69;;;17.85;67.31
21838;BME280;11081;45.946;6.140;2023-05-28T01:50:15;95076.81;;;17.83;67.33
21838;BME280;11081;45.946;6.140;2023-05-28T01:52:44;95070.72;;;17.82;67.24
21838;BME280;11081;45.946;6.140;2023-05-28T01:55:12;95069.94;;;17.82;67.57
21838;BME280;11081;45.946;6.140;2023-05-28T01:57:43;95066.78;;;17.80;67.76
21838;BME280;11081;45.946;6.140;2023-05-28T02:00:13;95072.84;;;17.80;67.65
21838;BME280;11081;45.946;6.140;2023-05-28T02:02:42;95070.47;;;17.79;67.74
21838;BME280;11081;45.946;6.140;2023-05-28T02:05:15;95073.13;;;17.74;67.98
21838;BME280;11081;45.946;6.140;2023-05-28T02:07:43;95072.59;;;17.77;67.75
21838;BME280;11081;45.946;6.140;2023-05-28T02:10:12;95074.19;;;17.78;67.81
21838;BME280;11081;45.946;6.140;2023-05-28T02:12:40;95074.19;;;17.78;67.94
21838;BME280;11081;45.946;6.140;2023-05-28T02:15:08;95073.66;;;17.76;68.17
21838;BME280;11081;45.946;6.140;2023-05-28T02:17:39;95083.69;;;17.74;68.39
21838;BME280;11081;45.946;6.140;2023-05-28T02:20:08;95083.44;;;17.70;68.18
21838;BME280;11081;45.946;6.140;2023-05-28T02:22:37;95079.97;;;17.59;68.75
21838;BME280;11081;45.946;6.140;2023-05-28T02:25:06;95086.84;;;17.55;68.75
21838;BME280;11081;45.946;6.140;2023-05-28T02:27:34;95084.47;;;17.54;68.88
21838;BME280;11081;45.946;6.140;2023-05-28T02:30:03;95092.91;;;17.56;68.92
21838;BME280;11081;45.946;6.140;2023-05-28T02:32:32;95086.31;;;17.58;68.99
21838;BME280;11081;45.946;6.140;2023-05-28T02:35:01;95079.72;;;17.61;69.02
21838;BME280;11081;45.946;6.140;2023-05-28T02:37:29;95089.47;;;17.60;69.13
21838;BME280;11081;45.946;6.140;2023-05-28T02:39:58;95083.69;;;17.58;69.00
21838;BME280;11081;45.946;6.140;2023-05-28T02:42:26;95080.78;;;17.55;69.28
21838;BME280;11081;45.946;6.140;2023-05-28T02:44:54;95088.97;;;17.53;69.47
21838;BME280;11081;45.946;6.140;2023-05-28T02:47:22;95078.41;;;17.53;69.34
21838;BME280;11081;45.946;6.140;2023-05-28T02:49:50;95084.22;;;17.55;69.23
21838;BME280;11081;45.946;6.140;2023-05-28T02:52:20;95085.28;;;17.54;69.43
21838;BME280;11081;45.946;6.140;2023-05-28T02:54:48;95088.97;;;17.53;69.45
21838;BME280;11081;45.946;6.140;2023-05-28T02:57:16;95081.56;;;17.55;69.64
21838;BME280;11081;45.946;6.140;2023-05-28T02:59:47;95085.78;;;17.56;69.70
21838;BME280;11081;45.946;6.140;2023-05-28T03:02:16;95085.78;;;17.61;69.57
21838;BME280;11081;45.946;6.140;2023-05-28T03:04:46;95090.53;;;17.64;69.43
21838;BME280;11081;45.946;6.140;2023-05-28T03:07:14;95084.19;;;17.60;69.70
21838;BME280;11081;45.946;6.140;2023-05-28T03:09:44;95093.72;;;17.56;69.84
21838;BME280;11081;45.946;6.140;2023-05-28T03:12:12;95090.56;;;17.54;70.11
21838;BME280;11081;45.946;6.140;2023-05-28T03:14:41;95083.69;;;17.53;70.00
21838;BME280;11081;45.946;6.140;2023-05-28T03:17:10;95088.44;;;17.56;69.90
21838;BME280;11081;45.946;6.140;2023-05-28T03:19:38;95085.00;;;17.51;70.04
21838;BME280;11081;45.946;6.140;2023-05-28T03:22:07;95087.94;;;17.49;69.97
21838;BME280;11081;45.946;6.140;2023-05-28T03:24:39;95090.00;;;17.47;70.06
21838;BME280;11081;45.946;6.140;2023-05-28T03:27:12;95086.31;;;17.48;70.13
21838;BME280;11081;45.946;6.140;2023-05-28T03:29:40;95085.25;;;17.44;70.78
21838;BME280;11081;45.946;6.140;2023-05-28T03:32:15;95092.13;;;17.35;70.86
21838;BME280;11081;45.946;6.140;2023-05-28T03:34:43;95090.56;;;17.39;70.55
21838;BME280;11081;45.946;6.140;2023-05-28T03:37:14;95099.53;;;17.38;70.50
21838;BME280;11081;45.946;6.140;2023-05-28T03:39:43;95096.88;;;17.38;70.90
21838;BME280;11081;45.946;6.140;2023-05-28T03:42:13;95100.56;;;17.27;71.17
21838;BME280;11081;45.946;6.140;2023-05-28T03:44:41;95094.75;;;17.04;72.06
21838;BME280;11081;45.946;6.140;2023-05-28T03:47:11;95096.06;;;17.07;72.13
21838;BME280;11081;45.946;6.140;2023-05-28T03:49:41;95097.66;;;17.13;71.99
21838;BME280;11081;45.946;6.140;2023-05-28T03:52:09;95094.25;;;17.13;71.91
21838;BME280;11081;45.946;6.140;2023-05-28T03:54:47;95096.88;;;17.18;71.65
21838;BME280;11081;45.946;6.140;2023-05-28T03:57:16;95093.72;;;17.21;71.41
21838;BME280;11081;45.946;6.140;2023-05-28T03:59:44;95087.38;;;17.22;71.57
21838;BME280;11081;45.946;6.140;2023-05-28T04:02:12;95093.44;;;17.22;71.37
21838;BME280;11081;45.946;6.140;2023-05-28T04:04:40;95088.44;;;17.21;71.44
21838;BME280;11081;45.946;6.140;2023-05-28T04:07:10;95090.81;;;17.22;71.48
21838;BME280;11081;45.946;6.140;2023-05-28T04:09:38;95091.34;;;17.24;71.12
21838;BME280;11081;45.946;6.140;2023-05-28T04:12:07;95090.53;;;17.24;71.51
21838;BME280;11081;45.946;6.140;2023-05-28T04:14:38;95086.06;;;17.24;71.35
21838;BME280;11081;45.946;6.140;2023-05-28T04:17:07;95085.25;;;17.24;71.51
21838;BME280;11081;45.946;6.140;2023-05-28T04:19:37;95090.53;;;17.24;71.60
21838;BME280;11081;45.946;6.140;2023-05-28T04:22:05;95088.97;;;17.23;71.45
21838;BME280;11081;45.946;6.140;2023-05-28T04:24:33;95090.53;;;17.24;71.64
21838;BME280;11081;45.946;6.140;2023-05-28T04:27:01;95087.63;;;17.25;71.30
21838;BME280;11081;45.946;6.140;2023-05-28T04:29:30;95089.50;;;17.30;71.34
21838;BME280;11081;45.946;6.140;2023-05-28T04:32:00;95097.94;;;17.32;71.47
21838;BME280;11081;45.946;6.140;2023-05-28T04:34:28;95097.41;;;17.35;71.30
21838;BME280;11081;45.946;6.140;2023-05-28T04:36:59;95099.00;;;17.36;71.54
21838;BME280;11081;45.946;6.140;2023-05-28T04:39:27;95101.38;;;17.32;72.12
21838;BME280;11081;45.946;6.140;2023-05-28T04:41:55;95100.53;;;17.06;73.25
21838;BME280;11081;45.946;6.140;2023-05-28T04:44:23;95102.13;;;16.87;73.83
21838;BME280;11081;45.946;6.140;2023-05-28T04:46:54;95102.38;;;16.91;73.90
21838;BME280;11081;45.946;6.140;2023-05-28T04:49:24;95102.66;;;16.94;73.79
21838;BME280;11081;45.946;6.140;2023-05-28T04:51:52;95102.78;;;16.57;75.24
21838;BME280;11081;45.946;6.140;2023-05-28T04:54:20;95107.28;;;16.57;75.63
21838;BME280;11081;45.946;6.140;2023-05-28T04:56:48;95107.63;;;16.70;74.74
21838;BME280;11081;45.946;6.140;2023-05-28T04:59:16;95107.38;;;16.82;74.21
21838;BME280;11081;45.946;6.140;2023-05-28T05:01:44;95109.47;;;16.85;74.86
21838;BME280;11081;45.946;6.140;2023-05-28T05:04:13;95108.69;;;16.85;74.75
21838;BME280;11081;45.946;6.140;2023-05-28T05:06:42;95116.88;;;16.93;74.44
21838;BME280;11081;45.946;6.140;2023-05-28T05:09:10;95111.63;;;16.93;74.45
21838;BME280;11081;45.946;6.140;2023-05-28T05:11:39;95116.38;;;17.01;74.09
21838;BME280;11081;45.946;6.140;2023-05-28T05:14:07;95119.03;;;17.12;73.75
21838;BME280;11081;45.946;6.140;2023-05-28T05:16:35;95115.06;;;17.19;73.40
21838;BME280;11081;45.946;6.140;2023-05-28T05:19:04;95115.88;;;17.25;73.38
21838;BME280;11081;45.946;6.140;2023-05-28T05:21:32;95111.66;;;17.29;73.28
21838;BME280;11081;45.946;6.140;2023-05-28T05:24:01;95115.34;;;17.33;73.25
21838;BME280;11081;45.946;6.140;2023-05-28T05:26:29;95110.59;;;17.40;73.62
21838;BME280;11081;45.946;6.140;2023-05-28T05:28:57;95120.09;;;17.46;73.37
21838;BME280;11081;45.946;6.140;2023-05-28T05:31:25;95122.22;;;17.54;72.83
21838;BME280;11081;45.946;6.140;2023-05-28T05:33:54;95111.66;;;17.64;72.52
21838;BME280;11081;45.946;6.140;2023-05-28T05:36:45;95111.69;;;17.75;72.57
21838;BME280;11081;45.946;6.140;2023-05-28T05:39:33;95111.16;;;17.78;72.49
21838;BME280;11081;45.946;6.140;2023-05-28T05:42:23;95106.38;;;17.85;72.29
21838;BME280;11081;45.946;6.140;2023-05-28T05:44:53;95106.38;;;17.95;72.49
21838;BME280;11081;45.946;6.140;2023-05-28T05:47:21;95105.78;;;18.08;72.39
21838;BME280;11081;45.946;6.140;2023-05-28T05:49:50;95105.22;;;18.21;72.26
21838;BME280;11081;45.946;6.140;2023-05-28T05:52:18;95109.69;;;18.31;72.27
21838;BME280;11081;45.946;6.140;2023-05-28T05:54:52;95106.78;;;18.33;73.45
21838;BME280;11081;45.946;6.140;2023-05-28T05:57:22;95104.66;;;18.35;73.45
21838;BME280;11081;45.946;6.140;2023-05-28T05:59:53;95112.13;;;18.17;74.59
21838;BME280;11081;45.946;6.140;2023-05-28T06:02:21;95108.44;;;18.13;74.83
21838;BME280;11081;45.946;6.140;2023-05-28T06:04:50;95114.78;;;18.07;74.97
21838;BME280;11081;45.946;6.140;2023-05-28T06:07:34;95121.38;;;18.05;75.71
21838;BME280;11081;45.946;6.140;2023-05-28T06:10:14;95117.44;;;18.02;76.33
21838;BME280;11081;45.946;6.140;2023-05-28T06:12:43;95110.56;;;18.01;77.20
21838;BME280;11081;45.946;6.140;2023-05-28T06:15:12;95112.38;;;18.11;77.19
21838;BME280;11081;45.946;6.140;2023-05-28T06:17:40;95108.44;;;18.13;76.50
21838;BME280;11081;45.946;6.140;2023-05-28T06:20:10;95109.50;;;18.07;77.28
21838;BME280;11081;45.946;6.140;2023-05-28T06:22:38;95108.44;;;18.13;76.08
21838;BME280;11081;45.946;6.140;2023-05-28T06:25:07;95106.25;;;18.31;74.78
21838;BME280;11081;45.946;6.140;2023-05-28T06:27:38;95108.53;;;18.52;74.17
21838;BME280;11081;45.946;6.140;2023-05-28T06:30:07;95105.63;;;18.59;73.63
21838;BME280;11081;45.946;6.140;2023-05-28T06:32:37;95096.09;;;18.63;73.02
21838;BME280;11081;45.946;6.140;2023-05-28T06:35:05;95098.16;;;18.71;72.79
21838;BME280;11081;45.946;6.140;2023-05-28T06:37:34;95104.44;;;18.85;72.60
21838;BME280;11081;45.946;6.140;2023-05-28T06:40:06;95095.91;;;18.94;72.41
21838;BME280;11081;45.946;6.140;2023-05-28T06:42:34;95100.69;;;18.97;71.30
21838;BME280;11081;45.946;6.140;2023-05-28T06:45:15;95095.88;;;19.04;70.88
21838;BME280;11081;45.946;6.140;2023-05-28T06:47:45;95097.88;;;19.22;70.41
21838;BME280;11081;45.946;6.140;2023-05-28T06:50:15;95089.81;;;19.37;69.36
21838;BME280;11081;45.946;6.140;2023-05-28T06:52:50;95103.06;;;19.32;69.04
21838;BME280;11081;45.946;6.140;2023-05-28T06:55:18;95095.22;;;19.22;69.95
21838;BME280;11081;45.946;6.140;2023-05-28T06:58:09;95092.56;;;19.22;69.00
21838;BME280;11081;45.946;6.140;2023-05-28T07:01:04;95096.25;;;19.26;68.51
21838;BME280;11081;45.946;6.140;2023-05-28T07:03:51;95090.84;;;19.41;68.75
21838;BME280;11081;45.946;6.140;2023-05-28T07:06:29;95095.44;;;19.65;67.65
21838;BME280;11081;45.946;6.140;2023-05-28T07:08:59;95086.97;;;19.63;67.79
21838;BME280;11081;45.946;6.140;2023-05-28T07:11:27;95088.63;;;19.54;68.18
21838;BME280;11081;45.946;6.140;2023-05-28T07:13:55;95087.69;;;19.39;68.49
21838;BME280;11081;45.946;6.140;2023-05-28T07:16:25;95089.81;;;19.37;68.21
21838;BME280;11081;45.946;6.140;2023-05-28T07:18:54;95090.28;;;19.44;68.35
21838;BME280;11081;45.946;6.140;2023-05-28T07:21:24;95082.78;;;19.57;67.74
21838;BME280;11081;45.946;6.140;2023-05-28T07:23:52;95089.91;;;19.61;67.57
21838;BME280;11081;45.946;6.140;2023-05-28T07:26:21;95094.53;;;19.74;67.74
21838;BME280;11081;45.946;6.140;2023-05-28T07:28:49;95080.94;;;19.86;67.25
21838;BME280;11081;45.946;6.140;2023-05-28T07:31:17;95083.88;;;20.08;66.81
21838;BME280;11081;45.946;6.140;2023-05-28T07:33:47;95086.88;;;20.26;66.46
21838;BME280;11081;45.946;6.140;2023-05-28T07:36:16;95079.28;;;20.43;66.47
21838;BME280;11081;45.946;6.140;2023-05-28T07:38:44;95081.72;;;20.58;65.97
21838;BME280;11081;45.946;6.140;2023-05-28T07:41:12;95078.44;;;20.66;66.05
21838;BME280;11081;45.946;6.140;2023-05-28T07:43:45;95075.06;;;20.80;65.86
21838;BME280;11081;45.946;6.140;2023-05-28T07:46:17;95076.50;;;20.72;65.24
21838;BME280;11081;45.946;6.140;2023-05-28T07:48:50;95074.25;;;20.60;64.73
21838;BME280;11081;45.946;6.140;2023-05-28T07:51:24;95070.88;;;20.55;64.82
21838;BME280;11081;45.946;6.140;2023-05-28T07:54:05;95073.34;;;20.70;65.51
21838;BME280;11081;45.946;6.140;2023-05-28T07:56:33;95078.44;;;20.66;65.39
21838;BME280;11081;45.946;6.140;2023-05-28T07:59:04;95071.78;;;20.69;65.77
21838;BME280;11081;45.946;6.140;2023-05-28T08:01:32;95064.53;;;20.75;65.06
21838;BME280;11081;45.946;6.140;2023-05-28T08:04:05;95067.09;;;20.80;65.01
21838;BME280;11081;45.946;6.140;2023-05-28T08:06:36;95066.97;;;20.90;64.91
21838;BME280;11081;45.946;6.140;2023-05-28T08:09:08;95060.50;;;20.96;64.16
21838;BME280;11081;45.946;6.140;2023-05-28T08:11:38;95061.66;;;20.90;64.53
21838;BME280;11081;45.946;6.140;2023-05-28T08:14:06;95057.34;;;20.94;63.83
21838;BME280;11081;45.946;6.140;2023-05-28T08:16:36;95046.66;;;20.99;63.90
21838;BME280;11081;45.946;6.140;2023-05-28T08:19:15;95053.25;;;21.01;64.25
21838;BME280;11081;45.946;6.140;2023-05-28T08:21:46;95060.97;;;21.03;64.13
21838;BME280;11081;45.946;6.140;2023-05-28T08:24:15;95047.03;;;20.92;64.90
21838;BME280;11081;45.946;6.140;2023-05-28T08:26:45;95044.59;;;20.96;64.95
21838;BME280;11081;45.946;6.140;2023-05-28T08:29:13;95033.47;;;21.13;64.64
21838;BME280;11081;45.946;6.140;2023-05-28T08:31:47;95045.16;;;21.30;64.72
21838;BME280;11081;45.946;6.140;2023-05-28T08:34:25;95037.69;;;21.33;63.87
21838;BME280;11081;45.946;6.140;2023-05-28T08:36:55;95044.97;;;21.41;63.78
21838;BME280;11081;45.946;6.140;2023-05-28T08:39:29;95026.31;;;21.46;64.13
21838;BME280;11081;45.946;6.140;2023-05-28T08:41:58;95029.28;;;21.58;64.59
21838;BME280;11081;45.946;6.140;2023-05-28T08:44:26;95035.56;;;21.62;63.16
21838;BME280;11081;45.946;6.140;2023-05-28T08:46:55;95021.81;;;21.60;63.13
21838;BME280;11081;45.946;6.140;2023-05-28T08:49:38;95024.81;;;21.40;62.66
21838;BME280;11081;45.946;6.140;2023-05-28T08:52:10;95020.63;;;21.52;63.03
21838;BME280;11081;45.946;6.140;2023-05-28T08:54:40;95023.78;;;21.68;62.75
21838;BME280;11081;45.946;6.140;2023-05-28T08:57:09;95023.22;;;21.71;62.73
21838;BME280;11081;45.946;6.140;2023-05-28T08:59:47;95022.22;;;21.81;62.35
21838;BME280;11081;45.946;6.140;2023-05-28T09:02:15;95020.84;;;21.83;63.07
21838;BME280;11081;45.946;6.140;2023-05-28T09:04:44;95021.03;;;22.01;62.83
21838;BME280;11081;45.946;6.140;2023-05-28T09:07:14;95016.97;;;22.08;62.30
21838;BME280;11081;45.946;6.140;2023-05-28T09:09:52;95016.06;;;22.13;62.14
21838;BME280;11081;45.946;6.140;2023-05-28T09:12:24;95016.44;;;22.20;61.63
21838;BME280;11081;45.946;6.140;2023-05-28T09:14:59;95009.84;;;22.31;61.74
21838;BME280;11081;45.946;6.140;2023-05-28T09:17:32;95009.13;;;22.39;61.80
21838;BME280;11081;45.946;6.140;2023-05-28T09:20:10;95001.94;;;22.40;61.13
21838;BME280;11081;45.946;6.140;2023-05-28T09:22:40;95003.50;;;22.41;61.26
21838;BME280;11081;45.946;6.140;2023-05-28T09:25:24;95006.84;;;22.46;61.85
21838;BME280;11081;45.946;6.140;2023-05-28T09:28:03;95003.00;;;22.52;61.30
21838;BME280;11081;45.946;6.140;2023-05-28T09:30:34;94997.56;;;22.58;61.53
21838;BME280;11081;45.946;6.140;2023-05-28T09:33:03;94992.22;;;22.71;61.34
21838;BME280;11081;45.946;6.140;2023-05-28T09:35:33;94992.22;;;22.71;61.14
21838;BME280;11081;45.946;6.140;2023-05-28T09:38:03;94994.56;;;22.73;60.29
21838;BME280;11081;45.946;6.140;2023-05-28T09:40:31;94987.84;;;22.75;61.11
21838;BME280;11081;45.946;6.140;2023-05-28T09:43:03;94980.75;;;22.85;61.15
21838;BME280;11081;45.946;6.140;2023-05-28T09:45:33;94983.72;;;22.83;60.82
21838;BME280;11081;45.946;6.140;2023-05-28T09:48:01;94984.28;;;22.80;60.16
21838;BME280;11081;45.946;6.140;2023-05-28T09:50:30;94977.78;;;22.86;59.87
21838;BME280;11081;45.946;6.140;2023-05-28T09:52:59;94979.34;;;22.87;60.32
21838;BME280;11081;45.946;6.140;2023-05-28T09:55:28;94987.25;;;22.92;60.71
21838;BME280;11081;45.946;6.140;2023-05-28T09:58:00;94982.44;;;23.03;59.63
21838;BME280;11081;45.946;6.140;2023-05-28T10:00:31;94984.81;;;23.04;59.72
21838;BME280;11081;45.946;6.140;2023-05-28T10:03:08;94974.16;;;23.04;58.66
21838;BME280;11081;45.946;6.140;2023-05-28T10:05:40;94980.09;;;23.01;59.24
21838;BME280;11081;45.946;6.140;2023-05-28T10:08:14;94972.59;;;23.03;59.32
21838;BME280;11081;45.946;6.140;2023-05-28T10:10:44;94977.06;;;23.17;58.67
21838;BME280;11081;45.946;6.140;2023-05-28T10:13:15;94970.84;;;23.30;58.36
21838;BME280;11081;45.946;6.140;2023-05-28T10:15:45;94974.53;;;23.42;58.76
21838;BME280;11081;45.946;6.140;2023-05-28T10:18:13;94972.03;;;23.46;58.80
21838;BME280;11081;45.946;6.140;2023-05-28T10:20:42;94973.66;;;23.25;57.80
21838;BME280;11081;45.946;6.140;2023-05-28T10:23:12;94965.91;;;23.37;58.64
21838;BME280;11081;45.946;6.140;2023-05-28T10:25:41;94965.63;;;23.47;58.15
21838;BME280;11081;45.946;6.140;2023-05-28T10:28:14;94966.34;;;23.61;58.49
21838;BME280;11081;45.946;6.140;2023-05-28T10:30:42;94960.72;;;23.71;57.65
21838;BME280;11081;45.946;6.140;2023-05-28T10:33:11;94959.84;;;23.85;57.47
21838;BME280;11081;45.946;6.140;2023-05-28T10:35:51;94959.53;;;23.78;58.42
21838;BME280;11081;45.946;6.140;2023-05-28T10:38:22;94953.50;;;23.63;56.95
21838;BME280;11081;45.946;6.140;2023-05-28T10:40:50;94959.56;;;23.55;57.88
21838;BME280;11081;45.946;6.140;2023-05-28T10:43:41;94957.25;;;23.62;57.45
21838;BME280;11081;45.946;6.140;2023-05-28T10:46:12;94953.84;;;23.70;57.61
21838;BME280;11081;45.946;6.140;2023-05-28T10:49:05;94959.16;;;23.70;55.68
21838;BME280;11081;45.946;6.140;2023-05-28T10:51:46;94939.72;;;23.70;56.35
21838;BME280;11081;45.946;6.140;2023-05-28T10:54:23;94932.69;;;23.74;56.81
21838;BME280;11081;45.946;6.140;2023-05-28T10:57:11;94931.47;;;23.80;55.70
21838;BME280;11081;45.946;6.140;2023-05-28T10:59:44;94923.41;;;23.71;56.41
21838;BME280;11081;45.946;6.140;2023-05-28T11:02:16;94925.50;;;23.75;57.99
21838;BME280;11081;45.946;6.140;2023-05-28T11:04:45;94918.91;;;23.81;57.78
21838;BME280;11081;45.946;6.140;2023-05-28T11:07:13;94916.25;;;23.81;57.26
21838;BME280;11081;45.946;6.140;2023-05-28T11:09:47;94908.09;;;23.86;56.56
21838;BME280;11081;45.946;6.140;2023-05-28T11:12:15;94904.44;;;23.73;56.31
21838;BME280;11081;45.946;6.140;2023-05-28T11:14:43;94899.91;;;23.73;56.22
21838;BME280;11081;45.946;6.140;2023-05-28T11:17:12;94895.88;;;23.85;56.12
21838;BME280;11081;45.946;6.140;2023-05-28T11:19:41;94895.44;;;24.00;56.40
21838;BME280;11081;45.946;6.140;2023-05-28T11:22:10;94893.69;;;24.04;56.22
21838;BME280;11081;45.946;6.140;2023-05-28T11:24:56;94893.66;;;23.87;55.45
21838;BME280;11081;45.946;6.140;2023-05-28T11:27:28;94887.25;;;23.88;55.83
21838;BME280;11081;45.946;6.140;2023-05-28T11:29:58;94886.94;;;23.89;56.12
21838;BME280;11081;45.946;6.140;2023-05-28T11:32:32;94886.50;;;23.96;56.09
21838;BME280;11081;45.946;6.140;2023-05-28T11:35:00;94879.75;;;23.98;57.67
21838;BME280;11081;45.946;6.140;2023-05-28T11:37:33;94877.34;;;23.88;55.93
21838;BME280;11081;45.946;6.140;2023-05-28T11:40:05;94878.00;;;23.94;55.66
21838;BME280;11081;45.946;6.140;2023-05-28T11:42:37;94872.06;;;24.14;56.04
21838;BME280;11081;45.946;6.140;2023-05-28T11:45:06;94879.13;;;24.27;54.95
21838;BME280;11081;45.946;6.140;2023-05-28T11:47:36;94876.47;;;24.27;54.05
21838;BME280;11081;45.946;6.140;2023-05-28T11:50:07;94882.75;;;24.31;54.42
21838;BME280;11081;45.946;6.140;2023-05-28T11:52:35;94881.97;;;24.31;54.60
21838;BME280;11081;45.946;6.140;2023-05-28T11:55:06;94870.84;;;24.38;53.87
21838;BME280;11081;45.946;6.140;2023-05-28T11:57:34;94874.28;;;24.29;53.97
21838;BME280;11081;45.946;6.140;2023-05-28T12:00:05;94861.38;;;24.14;54.83
21838;BME280;11081;45.946;6.140;2023-05-28T12:02:42;94862.63;;;23.91;53.79
21838;BME280;11081;45.946;6.140;2023-05-28T12:05:11;94862.31;;;23.84;53.75
21838;BME280;11081;45.946;6.140;2023-05-28T12:07:44;94857.16;;;24.05;53.22
21838;BME280;11081;45.946;6.140;2023-05-28T12:10:15;94858.88;;;24.26;53.76
21838;BME280;11081;45.946;6.140;2023-05-28T12:12:46;94861.25;;;24.19;52.39
21838;BME280;11081;45.946;6.140;2023-05-28T12:15:14;94855.78;;;24.42;55.48
21838;BME280;11081;45.946;6.140;2023-05-28T12:17:44;94852.47;;;24.53;54.46
21838;BME280;11081;45.946;6.140;2023-05-28T12:20:30;94854.03;;;24.46;53.01
21838;BME280;11081;45.946;6.140;2023-05-28T12:23:00;94856.06;;;24.49;52.47
21838;BME280;11081;45.946;6.140;2023-05-28T12:25:37;94859.22;;;24.51;52.69
21838;BME280;11081;45.946;6.140;2023-05-28T12:28:06;94857.66;;;24.50;53.33
21838;BME280;11081;45.946;6.140;2023-05-28T12:30:34;94858.63;;;24.37;53.20
21838;BME280;11081;45.946;6.140;2023-05-28T12:33:02;94847.31;;;24.40;51.98
21838;BME280;11081;45.946;6.140;2023-05-28T12:35:30;94849.16;;;24.65;52.38
21838;BME280;11081;45.946;6.140;2023-05-28T12:37:58;94842.88;;;24.61;52.93
21838;BME280;11081;45.946;6.140;2023-05-28T12:40:26;94847.25;;;24.57;52.59
21838;BME280;11081;45.946;6.140;2023-05-28T12:42:55;94832.66;;;24.54;51.51
21838;BME280;11081;45.946;6.140;2023-05-28T12:45:23;94835.19;;;24.51;52.52
21838;BME280;11081;45.946;6.140;2023-05-28T12:47:51;94841.00;;;24.53;52.58
21838;BME280;11081;45.946;6.140;2023-05-28T12:50:19;94831.28;;;24.40;52.85
21838;BME280;11081;45.946;6.140;2023-05-28T12:52:50;94819.78;;;24.56;51.97
21838;BME280;11081;45.946;6.140;2023-05-28T12:55:20;94814.88;;;24.84;51.82
21838;BME280;11081;45.946;6.140;2023-05-28T12:57:49;94816.19;;;25.16;51.35
21838;BME280;11081;45.946;6.140;2023-05-28T13:00:18;94816.91;;;25.34;50.41
21838;BME280;11081;45.946;6.140;2023-05-28T13:02:47;94806.50;;;25.41;49.63
21838;BME280;11081;45.946;6.140;2023-05-28T13:05:15;94797.75;;;25.62;49.52
21838;BME280;11081;45.946;6.140;2023-05-28T13:07:43;94788.56;;;25.71;49.66
21838;BME280;11081;45.946;6.140;2023-05-28T13:10:11;94801.41;;;25.48;48.76
21838;BME280;11081;45.946;6.140;2023-05-28T13:12:41;94786.56;;;25.60;48.28
21838;BME280;11081;45.946;6.140;2023-05-28T13:15:09;94794.03;;;25.75;47.46
21838;BME280;11081;45.946;6.140;2023-05-28T13:17:39;94787.91;;;25.95;48.16